Time;durP1;ratioP1;P1;durP2;ratioP2;P2;SDS_P1;SDS_P2;PMS_P1;PMS_P2;Temp;Humidity;BMP_temperature;BMP_pressure;BME280_temperature;BME280_humidity;BME280_pressure;Samples;Min_cycle;Max_cycle;Signal;HPM_P1;HPM_P2
2023/06/05 00:01:56;;;;;;;3.47;1.80;;;;;;;6.85;75.10;96955.84;10540526;28;20347;-62
2023/06/05 00:06:57;;;;;;;4.03;1.60;;;;;;;6.78;75.34;96958.94;10540946;28;20222;-61
2023/06/05 00:11:57;;;;;;;2.60;1.57;;;;;;;6.79;75.26;96954.56;10540756;28;20197;-62
2023/06/05 00:16:57;;;;;;;4.57;1.80;;;;;;;6.76;75.57;96940.00;10540268;28;20366;-61
2023/06/05 00:21:58;;;;;;;2.03;1.50;;;;;;;6.65;76.80;96953.09;10540450;28;20228;-62
2023/06/05 00:26:58;;;;;;;1.77;1.67;;;;;;;6.56;76.75;96952.06;10540100;28;20283;-62
2023/06/05 00:31:58;;;;;;;3.63;1.90;;;;;;;6.52;77.83;96948.03;10540101;28;20183;-61
2023/06/05 00:36:59;;;;;;;5.93;1.90;;;;;;;6.59;77.37;96943.19;10539658;28;20248;-62
2023/06/05 00:41:59;;;;;;;3.33;1.70;;;;;;;6.64;77.84;96937.59;10521247;28;20218;-62
2023/06/05 00:47:00;;;;;;;3.27;1.77;;;;;;;6.55;78.31;96931.34;10539574;28;20574;-59
2023/06/05 00:52:01;;;;;;;3.37;1.57;;;;;;;6.42;79.30;96944.56;10521150;28;20194;-62
2023/06/05 00:57:01;;;;;;;2.50;1.77;;;;;;;6.41;79.13;96938.50;10539081;28;20692;-62
2023/06/05 01:02:02;;;;;;;2.93;1.80;;;;;;;6.31;79.78;96945.44;10503215;28;20215;-62
2023/06/05 01:07:02;;;;;;;3.57;1.97;;;;;;;6.37;80.07;96931.06;10538280;28;20214;-62
2023/06/05 01:12:08;;;;;;;3.00;1.70;;;;;;;6.29;81.05;96936.91;10538119;28;20179;-61
2023/06/05 01:17:10;;;;;;;5.03;1.83;;;;;;;6.36;80.96;96939.84;10552876;22;20608;-66
2023/06/05 01:22:12;;;;;;;5.50;2.17;;;;;;;6.31;81.06;96932.41;10578527;28;20615;-66
2023/06/05 01:27:26;;;;;;;4.47;2.20;;;;;;;6.30;82.52;96943.75;10579769;28;20213;-67
2023/06/05 01:32:44;;;;;;;2.27;1.70;;;;;;;6.26;82.64;96937.16;10561658;28;20182;-67
2023/06/05 01:37:48;;;;;;;2.93;2.03;;;;;;;6.20;83.87;96932.44;10579487;28;20925;-67
2023/06/05 01:42:50;;;;;;;6.07;1.90;;;;;;;6.27;84.16;96931.00;10560948;28;20218;-67
2023/06/05 01:47:50;;;;;;;3.93;2.07;;;;;;;6.27;84.54;96932.78;10561030;28;20638;-67
2023/06/05 01:52:52;;;;;;;3.33;2.27;;;;;;;6.33;85.13;96924.50;10578977;28;20213;-67
2023/06/05 01:57:52;;;;;;;4.87;2.00;;;;;;;6.29;85.21;96930.88;10560673;28;20209;-67
2023/06/05 02:02:53;;;;;;;3.03;2.10;;;;;;;6.29;86.54;96930.88;10560309;28;20213;-67
2023/06/05 02:07:53;;;;;;;2.37;2.00;;;;;;;6.27;87.05;96928.41;10578562;28;20619;-67
2023/06/05 02:12:54;;;;;;;3.93;1.80;;;;;;;6.14;87.67;96930.34;10560193;28;20231;-67
2023/06/05 02:17:54;;;;;;;3.13;2.00;;;;;;;6.18;89.08;96923.94;10577330;28;20254;-67
2023/06/05 02:22:55;;;;;;;3.83;1.80;;;;;;;6.29;89.87;96921.28;10559927;28;20217;-67
2023/06/05 02:27:56;;;;;;;5.60;2.07;;;;;;;6.30;90.16;96922.13;10578074;28;20683;-67
2023/06/05 02:32:56;;;;;;;2.43;1.87;;;;;;;6.40;91.11;96928.22;10559721;28;20228;-67
2023/06/05 02:37:57;;;;;;;2.67;2.30;;;;;;;6.42;91.28;96918.53;10559384;28;20597;-67
2023/06/05 02:42:57;;;;;;;3.57;2.30;;;;;;;6.45;91.62;96917.44;10559537;28;20214;-67
2023/06/05 02:47:58;;;;;;;2.30;2.10;;;;;;;6.54;91.82;96925.34;10557909;28;20248;-67
2023/06/05 02:52:59;;;;;;;4.13;2.70;;;;;;;6.58;92.75;96913.72;10559154;28;20190;-67
2023/06/05 02:58:05;;;;;;;3.53;2.50;;;;;;;6.48;92.76;96915.44;10559631;28;20213;-67
2023/06/05 03:03:20;;;;;;;3.77;2.40;;;;;;;6.55;93.78;96920.94;10550799;28;20328;-67
2023/06/05 03:08:23;;;;;;;3.93;2.50;;;;;;;6.69;94.14;96918.06;10516868;28;20221;-67
2023/06/05 03:13:23;;;;;;;3.67;2.20;;;;;;;6.77;94.51;96904.41;10516528;28;20186;-67
2023/06/05 03:18:27;;;;;;;6.43;2.50;;;;;;;6.82;94.48;96909.22;10516519;28;20280;-67
2023/06/05 03:23:31;;;;;;;7.90;2.70;;;;;;;6.89;94.54;96905.97;10516245;28;20214;-67
2023/06/05 03:28:34;;;;;;;5.60;2.70;;;;;;;6.99;94.35;96907.81;10519661;28;20202;-67
2023/06/05 03:33:39;;;;;;;5.73;3.17;;;;;;;7.05;94.78;96899.47;10524252;28;20179;-68
2023/06/05 03:38:39;;;;;;;3.83;2.10;;;;;;;7.05;95.70;96902.88;10523898;28;20663;-68
2023/06/05 03:43:40;;;;;;;5.10;2.83;;;;;;;7.12;95.79;96911.00;10523932;28;20301;-68
2023/06/05 03:48:43;;;;;;;4.07;2.37;;;;;;;7.18;95.17;96905.25;10524111;28;20285;-68
2023/06/05 03:53:44;;;;;;;5.53;2.53;;;;;;;7.24;95.32;96912.59;10523572;28;20228;-68
2023/06/05 03:58:45;;;;;;;4.37;2.50;;;;;;;7.41;95.48;96912.91;10523041;28;20221;-67
2023/06/05 04:03:46;;;;;;;8.20;2.80;;;;;;;7.49;95.34;96907.88;10522998;28;20676;-68
2023/06/05 04:08:46;;;;;;;7.40;2.43;;;;;;;7.47;95.85;96909.78;10541234;28;20241;-67
2023/06/05 04:13:47;;;;;;;3.43;2.53;;;;;;;7.46;96.98;96903.75;10522530;28;20213;-68
2023/06/05 04:18:47;;;;;;;3.87;2.80;;;;;;;7.49;97.82;96918.31;10540630;28;20773;-67
2023/06/05 04:23:48;;;;;;;7.10;2.40;;;;;;;7.51;98.49;96919.00;10540306;28;20195;-68
2023/06/05 04:28:51;;;;;;;4.67;3.00;;;;;;;7.58;99.74;96924.50;10540226;28;20206;-68
2023/06/05 04:33:51;;;;;;;5.27;2.40;;;;;;;7.68;100.00;96914.91;10521794;28;20214;-68
2023/06/05 04:38:52;;;;;;;8.53;3.30;;;;;;;7.88;100.00;96920.19;10520733;28;20704;-67
2023/06/05 04:43:54;;;;;;;6.30;2.83;;;;;;;8.19;99.44;96913.06;10521779;28;20191;-68
2023/06/05 04:48:57;;;;;;;7.20;3.00;;;;;;;8.59;97.36;96901.72;10521131;28;20704;-68
2023/06/05 04:53:57;;;;;;;8.90;2.73;;;;;;;8.99;95.12;96905.03;10520999;28;20187;-68
2023/06/05 04:58:59;;;;;;;4.57;2.70;;;;;;;9.44;92.94;96891.28;10538920;28;20298;-68
2023/06/05 05:04:00;;;;;;;4.27;2.83;;;;;;;9.66;90.45;96887.44;10520386;28;20710;-68
2023/06/05 05:09:01;;;;;;;4.67;2.70;;;;;;;10.11;88.08;96881.38;10538524;28;20209;-69
2023/06/05 05:14:02;;;;;;;6.03;2.93;;;;;;;10.74;85.88;96878.81;10520053;28;20715;-67
2023/06/05 05:19:02;;;;;;;5.22;2.72;;;;;;;11.19;83.43;96869.88;10538446;28;20250;-66
2023/06/05 05:24:03;;;;;;;6.88;3.08;;;;;;;11.66;79.51;96856.31;10519756;28;20186;-67
2023/06/05 05:29:04;;;;;;;5.40;2.90;;;;;;;12.02;77.90;96826.38;10519493;28;20225;-67
2023/06/05 05:34:05;;;;;;;7.20;2.67;;;;;;;12.57;75.82;96815.22;10519473;28;20197;-67
2023/06/05 05:39:07;;;;;;;3.80;2.42;;;;;;;12.92;74.19;96818.41;10537104;28;20206;-67
2023/06/05 05:44:07;;;;;;;9.75;3.97;;;;;;;13.31;73.56;96809.75;10519678;28;20282;-67
2023/06/05 05:49:08;;;;;;;8.25;3.05;;;;;;;13.30;73.22;96828.31;10536819;28;20309;-67
2023/06/05 05:54:08;;;;;;;3.30;2.58;;;;;;;13.70;73.50;96842.31;10536902;28;20193;-67
2023/06/05 05:59:08;;;;;;;5.95;2.85;;;;;;;13.97;73.48;96845.47;10536714;28;20219;-67
2023/06/05 06:04:09;;;;;;;8.80;2.63;;;;;;;14.44;72.85;96847.06;10536459;28;20199;-67
2023/06/05 06:09:09;;;;;;;10.15;2.58;;;;;;;14.63;73.72;96865.06;10536530;28;20207;-67
2023/06/05 06:14:10;;;;;;;9.82;3.00;;;;;;;14.91;71.35;96846.00;10536096;28;20560;-67
2023/06/05 06:19:14;;;;;;;5.35;2.83;;;;;;;15.71;68.32;96817.19;10535864;28;20580;-67
2023/06/05 06:24:15;;;;;;;6.40;2.60;;;;;;;16.35;65.48;96787.34;10535910;28;20334;-67
2023/06/05 06:29:20;;;;;;;7.20;2.50;;;;;;;17.42;62.28;96760.72;10517179;28;20209;-68
2023/06/05 06:34:20;;;;;;;6.22;3.15;;;;;;;18.79;59.56;96758.59;10535746;28;20194;-69
2023/06/05 06:39:22;;;;;;;5.95;2.58;;;;;;;20.12;55.10;96714.66;10535314;28;20249;-68
2023/06/05 06:44:22;;;;;;;3.50;2.30;;;;;;;20.81;51.99;96676.53;10535600;28;20197;-69
2023/06/05 06:49:22;;;;;;;4.20;2.50;;;;;;;23.26;45.73;96631.94;10535297;28;20237;-70
2023/06/05 06:54:25;;;;;;;5.10;2.20;;;;;;;23.28;44.75;96629.03;10535245;28;20198;-69
2023/06/05 06:59:25;;;;;;;3.78;2.40;;;;;;;23.26;43.41;96607.88;10535409;28;20235;-68
2023/06/05 07:04:26;;;;;;;3.55;2.63;;;;;;;23.29;45.15;96662.72;10540112;28;20243;-69
2023/06/05 07:09:26;;;;;;;6.25;2.40;;;;;;;22.99;44.36;96642.34;10543393;28;20256;-68
2023/06/05 07:14:27;;;;;;;3.03;2.25;;;;;;;22.04;45.75;96639.78;10543104;28;20197;-69
2023/06/05 07:19:28;;;;;;;4.90;2.33;;;;;;;21.81;45.66;96637.91;10591376;22;20727;-64
2023/06/05 07:24:30;;;;;;;6.38;2.33;;;;;;;21.70;47.59;96684.00;10583694;28;20227;-63
2023/06/05 07:29:30;;;;;;;4.15;2.30;;;;;;;21.23;48.13;96697.97;10583467;28;20206;-63
2023/06/05 07:34:30;;;;;;;3.22;2.03;;;;;;;21.38;47.11;96669.06;10583817;28;20197;-62
2023/06/05 07:39:31;;;;;;;3.72;2.15;;;;;;;21.73;46.40;96673.72;10583046;28;20297;-61
2023/06/05 07:44:31;;;;;;;6.30;2.05;;;;;;;22.38;45.54;96665.91;10583182;28;20206;-61
2023/06/05 07:49:32;;;;;;;4.13;2.53;;;;;;;22.64;45.29;96667.28;10582878;28;20216;-59
2023/06/05 07:54:32;;;;;;;9.55;2.53;;;;;;;23.43;44.45;96677.44;10583466;28;20182;-61
2023/06/05 07:59:32;;;;;;;6.38;2.35;;;;;;;22.49;44.22;96646.41;10582702;28;20235;-62
2023/06/05 08:04:33;;;;;;;7.53;2.20;;;;;;;23.62;42.56;96645.13;10582446;28;20205;-62
2023/06/05 08:09:36;;;;;;;6.03;2.30;;;;;;;24.20;43.02;96667.22;10582189;28;20228;-63
2023/06/05 08:14:37;;;;;;;3.15;1.88;;;;;;;25.00;39.11;96595.41;10580701;28;20698;-63
2023/06/05 08:19:37;;;;;;;5.05;2.47;;;;;;;24.31;41.39;96625.34;10581505;28;20234;-62
2023/06/05 08:24:38;;;;;;;5.53;2.27;;;;;;;24.36;40.85;96623.56;10581705;28;20289;-63
2023/06/05 08:29:38;;;;;;;4.95;2.35;;;;;;;24.47;42.40;96670.03;10581275;28;20447;-64
2023/06/05 08:34:38;;;;;;;4.55;3.00;;;;;;;24.53;39.52;96601.25;10581483;28;20200;-62
2023/06/05 08:39:39;;;;;;;3.87;2.47;;;;;;;24.81;41.06;96653.06;10581166;28;20229;-63
2023/06/05 08:44:40;;;;;;;5.00;2.63;;;;;;;24.17;41.01;96619.53;10581073;28;20464;-63
2023/06/05 08:49:41;;;;;;;6.00;2.53;;;;;;;24.81;42.08;96663.78;10556643;28;20756;-62
2023/06/05 08:54:42;;;;;;;4.72;2.45;;;;;;;25.73;38.08;96599.59;10580516;28;20205;-63
2023/06/05 08:59:43;;;;;;;8.25;2.50;;;;;;;24.57;40.43;96613.94;10580131;28;20313;-61
2023/06/05 09:04:43;;;;;;;6.97;2.45;;;;;;;25.92;38.58;96624.97;10580012;28;20190;-63
2023/06/05 09:09:44;;;;;;;2.67;2.40;;;;;;;25.24;39.29;96605.84;10579966;28;20684;-62
2023/06/05 09:14:44;;;;;;;4.55;2.60;;;;;;;24.57;41.21;96639.88;10579622;28;20913;-66
2023/06/05 09:19:47;;;;;;;3.88;2.47;;;;;;;25.22;40.60;96651.69;10579293;28;20260;-62
2023/06/05 09:24:56;;;;;;;4.85;2.75;;;;;;;26.06;39.47;96637.97;10578922;28;20293;-62
2023/06/05 09:30:03;;;;;;;5.00;2.50;;;;;;;25.99;39.10;96630.16;10578849;28;20206;-64
2023/06/05 09:35:05;;;;;;;3.95;3.00;;;;;;;26.83;38.24;96647.31;10579084;28;20186;-61
2023/06/05 09:40:08;;;;;;;3.22;2.65;;;;;;;27.03;36.85;96617.00;10579114;28;20309;-62
2023/06/05 09:45:08;;;;;;;5.15;2.67;;;;;;;25.12;39.43;96597.16;10578303;28;20190;-63
2023/06/05 09:50:21;;;;;;;9.50;3.10;;;;;;;26.63;37.97;96629.19;10578479;28;20691;-64
2023/06/05 09:55:23;;;;;;;7.40;2.88;;;;;;;27.21;36.64;96596.06;10578429;28;20220;-61
2023/06/05 10:00:24;;;;;;;12.60;2.88;;;;;;;25.69;39.48;96612.69;10578704;28;20224;-63
2023/06/05 10:05:25;;;;;;;4.88;3.30;;;;;;;25.02;38.40;96561.13;10551807;28;20182;-63
2023/06/05 10:10:26;;;;;;;5.95;3.08;;;;;;;24.08;42.62;96637.84;10551777;28;20236;-62
2023/06/05 10:15:27;;;;;;;7.18;3.38;;;;;;;25.03;40.92;96621.69;10577450;28;20185;-64
2023/06/05 10:20:27;;;;;;;4.97;2.85;;;;;;;26.97;37.29;96593.88;10576965;28;20265;-63
2023/06/05 10:25:30;;;;;;;6.50;3.05;;;;;;;27.00;38.27;96624.81;10551847;28;20641;-63
2023/06/05 10:30:55;;;;;;;6.80;3.38;;;;;;;26.80;37.97;96604.84;10577163;28;20293;-63
2023/06/05 10:36:19;;;;;;;6.07;3.33;;;;;;;27.95;35.51;96577.81;10577111;28;20209;-64
2023/06/05 10:41:20;;;;;;;4.80;2.95;;;;;;;25.85;37.76;96546.56;10577235;28;20632;-63
2023/06/05 10:46:26;;;;;;;4.78;3.10;;;;;;;26.36;37.95;96591.72;10576564;28;20217;-62
2023/06/05 10:51:39;;;;;;;6.43;2.95;;;;;;;25.41;38.94;96578.94;10577213;28;20964;-63
2023/06/05 10:56:57;;;;;;;6.47;3.33;;;;;;;24.81;41.40;96619.06;10577003;28;20300;-63
2023/06/05 11:02:16;;;;;;;4.50;3.30;;;;;;;25.32;38.93;96572.44;10576844;28;20217;-64
2023/06/05 11:07:21;;;;;;;6.28;3.25;;;;;;;25.09;38.47;96544.84;10577061;28;20209;-63
2023/06/05 11:12:21;;;;;;;6.25;3.03;;;;;;;25.67;38.90;96581.81;10576641;28;20194;-65
2023/06/05 11:17:29;;;;;;;5.60;3.15;;;;;;;26.19;37.72;96578.47;10576352;28;20245;-64
2023/06/05 11:22:29;;;;;;;4.18;3.30;;;;;;;26.36;38.73;96605.13;10577407;28;20221;-66
2023/06/05 11:27:44;;;;;;;5.55;3.38;;;;;;;26.53;37.08;96565.44;10576284;28;20243;-63
2023/06/05 11:32:45;;;;;;;8.40;3.60;;;;;;;27.53;36.92;96600.44;10576348;28;20281;-63
2023/06/05 11:37:45;;;;;;;6.40;3.30;;;;;;;26.95;35.58;96519.91;10576043;28;20281;-64
2023/06/05 11:42:45;;;;;;;4.50;3.10;;;;;;;26.35;36.36;96520.25;10576269;28;20245;-64
2023/06/05 11:47:46;;;;;;;17.40;3.57;;;;;;;27.91;36.13;96576.75;10576709;28;20474;-64
2023/06/05 11:52:46;;;;;;;2.63;2.43;;;;;;;27.89;35.19;96533.13;10583965;28;20439;-64
2023/06/05 11:57:48;;;;;;;6.55;3.00;;;;;;;28.30;34.49;96535.72;10583294;28;20463;-64
2023/06/05 12:02:49;;;;;;;4.53;2.75;;;;;;;27.23;34.46;96491.72;10583478;28;20217;-63
2023/06/05 12:07:50;;;;;;;5.05;2.97;;;;;;;27.79;34.42;96498.16;10582864;28;20643;-64
2023/06/05 12:12:53;;;;;;;5.20;3.00;;;;;;;28.91;31.07;96439.47;10583177;28;20644;-64
2023/06/05 12:17:55;;;;;;;7.88;2.90;;;;;;;28.62;32.06;96448.28;10582563;28;20242;-63
2023/06/05 12:22:56;;;;;;;6.55;3.20;;;;;;;29.45;32.72;96502.47;10582158;28;20240;-63
2023/06/05 12:27:57;;;;;;;3.80;3.05;;;;;;;29.62;30.06;96419.16;10582294;28;20642;-63
2023/06/05 12:33:04;;;;;;;12.48;3.80;;;;;;;28.03;31.82;96404.13;10581696;28;20277;-64
2023/06/05 12:38:05;;;;;;;10.45;2.78;;;;;;;26.89;32.72;96387.38;10581523;28;20229;-64
2023/06/05 12:43:16;;;;;;;4.25;2.58;;;;;;;26.78;33.04;96401.91;10581354;28;20671;-64
2023/06/05 12:48:16;;;;;;;6.28;3.20;;;;;;;26.67;34.54;96431.44;10581257;28;20217;-63
2023/06/05 12:53:18;;;;;;;3.00;2.42;;;;;;;27.05;33.03;96404.31;10581175;28;20194;-65
2023/06/05 12:58:18;;;;;;;5.68;2.55;;;;;;;26.68;33.09;96391.97;10580836;28;20259;-63
2023/06/05 13:03:18;;;;;;;4.88;2.33;;;;;;;26.92;33.28;96411.03;10578541;28;20722;-62
2023/06/05 13:08:19;;;;;;;4.15;2.58;;;;;;;26.67;32.49;96358.88;10579309;28;20643;-64
2023/06/05 13:13:20;;;;;;;8.57;2.80;;;;;;;27.53;32.96;96412.06;10579069;28;20209;-64
2023/06/05 13:18:20;;;;;;;8.30;2.78;;;;;;;25.90;33.82;96380.16;10591551;22;20284;-69
2023/06/05 13:23:21;;;;;;;4.90;2.80;;;;;;;25.71;34.98;96403.16;10577293;28;20286;-68
2023/06/05 13:28:22;;;;;;;4.70;3.03;;;;;;;26.83;33.10;96396.50;10560537;28;20625;-68
2023/06/05 13:33:24;;;;;;;5.13;2.40;;;;;;;26.19;32.84;96358.28;10535760;28;20809;-68
2023/06/05 13:38:24;;;;;;;7.55;2.88;;;;;;;26.54;33.92;96402.38;10536992;28;20460;-68
2023/06/05 13:43:25;;;;;;;8.47;2.70;;;;;;;26.22;34.77;96422.19;10536987;28;20230;-68
2023/06/05 13:48:25;;;;;;;4.77;2.60;;;;;;;26.66;34.20;96426.34;10536416;28;20464;-68
2023/06/05 13:53:26;;;;;;;5.50;2.60;;;;;;;26.74;34.62;96433.06;10536687;28;20446;-68
2023/06/05 13:58:27;;;;;;;5.18;2.85;;;;;;;26.78;33.03;96394.63;10536270;28;20222;-68
2023/06/05 14:03:27;;;;;;;3.53;2.50;;;;;;;25.50;34.99;96389.66;10536011;28;20222;-68
2023/06/05 14:08:28;;;;;;;3.47;2.67;;;;;;;25.31;34.80;96385.78;10536260;28;20672;-68
2023/06/05 14:13:29;;;;;;;5.53;2.83;;;;;;;24.21;37.44;96415.34;10534831;28;20266;-68
2023/06/05 14:18:30;;;;;;;9.15;3.22;;;;;;;24.07;36.76;96402.59;10535671;28;20230;-68
2023/06/05 14:23:30;;;;;;;5.03;2.95;;;;;;;22.85;38.46;96398.75;10535220;28;20223;-68
2023/06/05 14:28:30;;;;;;;5.70;2.38;;;;;;;22.92;38.41;96396.69;10535365;28;20223;-68
2023/06/05 14:33:31;;;;;;;6.38;3.00;;;;;;;23.02;38.59;96409.44;10535237;28;20187;-68
2023/06/05 14:38:31;;;;;;;7.55;3.08;;;;;;;21.73;40.16;96414.28;10534887;28;20245;-68
2023/06/05 14:43:31;;;;;;;7.40;2.88;;;;;;;22.54;40.31;96466.81;10534950;28;20226;-68
2023/06/05 14:48:32;;;;;;;8.30;2.80;;;;;;;22.62;40.30;96461.13;10534612;28;20206;-68
2023/06/05 14:53:32;;;;;;;5.35;2.92;;;;;;;22.66;39.76;96438.19;10533297;28;20189;-68
2023/06/05 14:58:32;;;;;;;6.03;2.88;;;;;;;22.61;41.14;96476.31;10533581;28;20218;-68
2023/06/05 15:03:33;;;;;;;4.18;2.70;;;;;;;22.68;40.36;96457.47;10533200;28;20301;-68
2023/06/05 15:08:33;;;;;;;5.18;2.40;;;;;;;22.57;40.01;96444.97;10533606;28;20214;-68
2023/06/05 15:13:34;;;;;;;10.13;3.22;;;;;;;22.20;40.11;96432.78;10534230;28;20190;-68
2023/06/05 15:18:34;;;;;;;13.93;4.47;;;;;;;21.77;40.51;96430.59;10534420;28;20354;-68
2023/06/05 15:23:34;;;;;;;8.27;3.22;;;;;;;21.59;40.92;96443.00;10536240;28;20243;-68
2023/06/05 15:28:35;;;;;;;6.47;3.25;;;;;;;22.16;41.32;96473.53;10542566;28;20252;-68
2023/06/05 15:33:35;;;;;;;21.42;6.75;;;;;;;22.07;40.85;96441.91;10542112;28;20207;-68
2023/06/05 15:38:35;;;;;;;9.50;2.72;;;;;;;21.82;42.63;96481.38;10542028;28;20222;-68
2023/06/05 15:43:36;;;;;;;7.72;3.13;;;;;;;21.96;42.88;96495.25;10541689;28;20226;-68
2023/06/05 15:48:37;;;;;;;8.98;3.53;;;;;;;20.57;47.39;96561.94;10541813;28;20207;-68
2023/06/05 15:53:37;;;;;;;10.10;3.83;;;;;;;19.82;50.47;96605.47;10540537;28;20190;-68
2023/06/05 15:58:38;;;;;;;5.88;3.90;;;;;;;19.59;53.92;96681.25;10540124;28;20202;-68
2023/06/05 16:03:38;;;;;;;11.57;4.38;;;;;;;18.87;56.38;96709.81;10540062;28;20202;-68
2023/06/05 16:08:39;;;;;;;8.65;4.78;;;;;;;18.79;57.67;96732.06;10540263;28;20239;-69
2023/06/05 16:13:40;;;;;;;10.38;4.32;;;;;;;18.45;58.81;96733.97;10540557;28;20197;-68
2023/06/05 16:18:40;;;;;;;5.90;3.97;;;;;;;18.34;59.35;96724.75;10540189;28;20258;-69
2023/06/05 16:23:40;;;;;;;7.32;3.55;;;;;;;18.15;59.88;96718.47;10540273;28;20240;-68
2023/06/05 16:28:41;;;;;;;5.07;3.80;;;;;;;18.03;60.45;96713.97;10536802;28;20211;-68
2023/06/05 16:33:41;;;;;;;7.47;4.25;;;;;;;17.93;61.80;96719.66;10539297;28;20189;-68
2023/06/05 16:38:43;;;;;;;7.38;3.65;;;;;;;17.54;62.53;96721.22;10538745;28;20213;-67
2023/06/05 16:43:43;;;;;;;8.05;3.90;;;;;;;17.56;63.06;96719.19;10534884;28;20251;-67
2023/06/05 16:48:45;;;;;;;6.13;3.90;;;;;;;17.58;63.23;96717.13;10537816;28;20239;-67
2023/06/05 16:53:45;;;;;;;8.07;4.55;;;;;;;17.50;64.21;96727.94;10536718;28;20194;-67
2023/06/05 16:58:46;;;;;;;5.85;4.40;;;;;;;17.35;64.98;96734.22;10538806;28;20618;-67
2023/06/05 17:03:50;;;;;;;10.75;4.70;;;;;;;17.11;65.56;96731.06;10538308;28;20723;-68
2023/06/05 17:08:50;;;;;;;6.03;4.13;;;;;;;17.10;66.85;96741.84;10538136;28;20210;-68
2023/06/05 17:13:51;;;;;;;7.38;4.53;;;;;;;17.06;66.54;96725.56;10537189;28;20190;-68
2023/06/05 17:18:51;;;;;;;10.38;4.50;;;;;;;17.22;66.68;96728.88;10537083;28;20245;-68
2023/06/05 17:23:51;;;;;;;7.97;4.82;;;;;;;17.20;66.52;96721.13;10536830;28;20226;-68
2023/06/05 17:28:57;;;;;;;5.82;3.92;;;;;;;17.27;65.87;96705.25;10536793;28;20221;-67
2023/06/05 17:33:58;;;;;;;7.90;4.40;;;;;;;17.07;66.35;96705.19;10537923;28;20217;-67
2023/06/05 17:38:58;;;;;;;6.25;4.13;;;;;;;17.02;66.18;96703.13;10534832;28;20252;-67
2023/06/05 17:43:58;;;;;;;9.88;4.78;;;;;;;16.86;66.78;96701.66;10534848;28;20222;-67
2023/06/05 17:48:59;;;;;;;10.38;4.63;;;;;;;16.75;67.42;96718.03;10535199;28;20263;-67
2023/06/05 17:54:00;;;;;;;7.63;4.65;;;;;;;16.63;68.22;96731.00;10535921;28;20214;-68
2023/06/05 17:59:00;;;;;;;9.63;4.78;;;;;;;16.45;69.45;96730.66;10535857;28;20267;-68
2023/06/05 18:04:00;;;;;;;10.43;4.65;;;;;;;16.34;69.46;96732.84;10535917;28;20320;-68
2023/06/05 18:09:01;;;;;;;7.22;4.80;;;;;;;16.20;70.65;96739.84;10535623;28;20210;-68
2023/06/05 18:14:01;;;;;;;8.55;4.57;;;;;;;16.05;71.66;96745.22;10535796;28;20191;-67
2023/06/05 18:19:02;;;;;;;10.25;5.82;;;;;;;15.95;73.20;96760.56;10535144;28;20240;-67
2023/06/05 18:24:02;;;;;;;9.10;5.20;;;;;;;15.87;74.10;96764.16;10535188;28;20248;-67
2023/06/05 18:29:03;;;;;;;7.72;4.35;;;;;;;15.73;75.17;96758.88;10534934;28;20208;-67
2023/06/05 18:34:03;;;;;;;5.32;4.82;;;;;;;15.69;75.10;96761.09;10534847;28;20221;-67
2023/06/05 18:39:03;;;;;;;7.25;4.63;;;;;;;15.64;75.74;96753.75;10534856;28;20214;-67
2023/06/05 18:44:04;;;;;;;8.52;5.10;;;;;;;15.59;76.62;96760.56;10534503;28;20229;-67
2023/06/05 18:49:04;;;;;;;13.30;4.82;;;;;;;15.54;76.82;96761.13;10534768;28;20242;-67
2023/06/05 18:54:05;;;;;;;6.68;4.95;;;;;;;15.52;77.24;96763.16;10534902;28;20183;-67
2023/06/05 18:59:05;;;;;;;7.97;4.68;;;;;;;15.54;76.68;96757.69;10537874;28;20222;-68
2023/06/05 19:04:05;;;;;;;7.65;5.25;;;;;;;15.43;76.84;96757.16;10543183;28;20218;-67
2023/06/05 19:09:06;;;;;;;9.75;4.35;;;;;;;15.51;75.58;96733.31;10543180;28;20214;-67
2023/06/05 19:14:06;;;;;;;5.95;3.95;;;;;;;15.40;73.96;96733.78;10542947;28;20875;-67
2023/06/05 19:19:07;;;;;;;9.50;3.55;;;;;;;15.54;73.05;96713.59;10499369;22;20236;-64
2023/06/05 19:24:07;;;;;;;7.93;3.75;;;;;;;15.51;73.90;96735.09;10416600;28;20228;-65
2023/06/05 19:29:07;;;;;;;8.05;3.95;;;;;;;15.39;73.83;96737.44;10417514;28;20209;-65
2023/06/05 19:34:08;;;;;;;8.82;4.53;;;;;;;15.20;75.07;96757.31;10417462;28;20192;-65
2023/06/05 19:39:08;;;;;;;7.60;3.30;;;;;;;15.35;74.29;96752.00;10417145;28;20220;-65
2023/06/05 19:44:12;;;;;;;8.50;4.20;;;;;;;15.34;73.69;96743.28;10416835;28;20217;-64
2023/06/05 19:49:12;;;;;;;6.18;3.35;;;;;;;15.38;72.78;96734.97;10416798;28;20216;-63
2023/06/05 19:54:13;;;;;;;8.02;4.07;;;;;;;15.29;72.86;96735.06;10416448;28;20204;-65
2023/06/05 19:59:13;;;;;;;6.47;3.42;;;;;;;15.27;73.48;96747.66;10416260;28;20215;-63
2023/06/05 20:04:13;;;;;;;7.30;3.67;;;;;;;15.28;73.67;96749.31;10416408;28;20306;-64
2023/06/05 20:09:14;;;;;;;8.02;3.75;;;;;;;15.21;74.33;96758.13;10416023;28;20231;-63
2023/06/05 20:14:14;;;;;;;6.80;3.50;;;;;;;15.15;74.88;96764.97;10415905;28;20200;-65
2023/06/05 20:19:15;;;;;;;8.05;3.80;;;;;;;15.03;75.98;96769.88;10433185;28;20228;-65
2023/06/05 20:24:15;;;;;;;6.30;3.47;;;;;;;15.05;77.31;96778.41;10456715;28;20223;-65
2023/06/05 20:29:19;;;;;;;6.32;3.63;;;;;;;14.99;77.19;96760.69;10456582;28;20212;-64
2023/06/05 20:34:19;;;;;;;5.55;3.47;;;;;;;15.00;76.55;96753.59;10456407;28;20185;-64
2023/06/05 20:39:20;;;;;;;6.05;3.53;;;;;;;15.01;79.12;96794.78;10456435;28;20589;-64
2023/06/05 20:44:21;;;;;;;6.78;2.85;;;;;;;14.83;76.80;96758.25;10456096;28;20216;-64
2023/06/05 20:49:22;;;;;;;4.65;3.42;;;;;;;14.93;75.37;96748.22;10457324;28;20221;-63
2023/06/05 20:54:22;;;;;;;6.18;3.22;;;;;;;15.08;73.08;96729.75;10457485;28;20516;-64
2023/06/05 20:59:23;;;;;;;9.85;3.50;;;;;;;15.10;72.49;96725.09;10456344;28;20227;-65
2023/06/05 21:04:23;;;;;;;6.63;3.38;;;;;;;15.19;72.64;96726.66;10455929;28;20223;-65
2023/06/05 21:09:23;;;;;;;8.52;3.60;;;;;;;15.24;70.84;96715.53;10455834;28;20250;-65
2023/06/05 21:14:24;;;;;;;6.50;3.63;;;;;;;15.10;70.64;96712.75;10455139;28;20200;-62
2023/06/05 21:19:24;;;;;;;4.93;3.50;;;;;;;15.01;73.13;96763.13;10434056;28;20236;-62
2023/06/05 21:24:24;;;;;;;6.35;3.33;;;;;;;14.97;71.66;96746.88;10431580;28;20274;-65
2023/06/05 21:29:27;;;;;;;4.80;3.20;;;;;;;14.94;71.75;96745.41;10444346;28;20212;-63
2023/06/05 21:34:27;;;;;;;8.30;3.55;;;;;;;14.87;71.75;96728.69;10454822;28;20188;-63
2023/06/05 21:39:27;;;;;;;6.70;3.60;;;;;;;14.78;73.68;96754.34;10453952;28;20592;-63
2023/06/05 21:44:28;;;;;;;6.75;3.45;;;;;;;14.74;74.64;96758.34;10454537;28;20198;-65
2023/06/05 21:49:28;;;;;;;8.07;3.97;;;;;;;14.60;76.98;96772.31;10453778;28;20216;-64
2023/06/05 21:54:28;;;;;;;5.47;3.92;;;;;;;14.44;83.89;96791.72;10454044;28;20202;-65
2023/06/05 21:59:29;;;;;;;5.45;3.20;;;;;;;13.76;90.68;96775.78;10453401;28;20227;-64
2023/06/05 22:04:31;;;;;;;6.13;4.55;;;;;;;13.38;100.00;96783.56;10453601;28;20192;-63
2023/06/05 22:09:31;;;;;;;4.80;3.90;;;;;;;13.16;100.00;96780.69;10453648;28;20235;-64
2023/06/05 22:14:32;;;;;;;4.97;4.43;;;;;;;13.14;100.00;96781.84;10452976;28;20279;-64
2023/06/05 22:19:33;;;;;;;8.57;4.10;;;;;;;12.93;100.00;96782.44;10452829;28;20236;-64
2023/06/05 22:24:34;;;;;;;4.75;4.18;;;;;;;12.82;100.00;96783.63;10452700;28;20282;-63
2023/06/05 22:29:34;;;;;;;6.68;4.47;;;;;;;12.59;100.00;96786.97;10452885;28;20618;-63
2023/06/05 22:34:34;;;;;;;8.85;5.47;;;;;;;12.37;100.00;96793.69;10452045;28;20194;-64
2023/06/05 22:39:35;;;;;;;9.90;5.63;;;;;;;12.22;100.00;96793.56;10452465;28;20218;-64
2023/06/05 22:44:36;;;;;;;7.47;5.60;;;;;;;12.12;100.00;96803.41;10452584;28;20207;-64
2023/06/05 22:49:37;;;;;;;12.30;6.10;;;;;;;12.03;100.00;96809.63;10452460;28;20269;-65
2023/06/05 22:54:37;;;;;;;9.90;6.25;;;;;;;11.92;100.00;96808.97;10452495;28;20749;-65
2023/06/05 22:59:37;;;;;;;9.35;6.20;;;;;;;12.00;100.00;96820.47;10452018;28;20216;-65
2023/06/05 23:04:44;;;;;;;9.95;6.30;;;;;;;11.90;100.00;96824.03;10452065;28;20192;-64
2023/06/05 23:09:45;;;;;;;9.50;6.85;;;;;;;11.92;100.00;96823.88;10452107;28;20211;-65
2023/06/05 23:14:46;;;;;;;7.30;5.88;;;;;;;11.84;100.00;96819.44;10451837;28;20202;-65
2023/06/05 23:19:46;;;;;;;10.10;6.28;;;;;;;11.78;100.00;96818.28;10451620;28;20238;-66
2023/06/05 23:24:47;;;;;;;10.77;8.10;;;;;;;11.78;100.00;96828.78;10451794;28;20200;-64